Time;durP1;ratioP1;P1;durP2;ratioP2;P2;SDS_P1;SDS_P2;PMS_P1;PMS_P2;Temp;Humidity;BMP_temperature;BMP_pressure;BME280_temperature;BME280_humidity;BME280_pressure;Samples;Min_cycle;Max_cycle;Signal;HPM_P1;HPM_P2
2023/05/31 00:00:57;;;;;;;4.20;3.92;;;;;;;;;;5151327;23;20023;-55
2023/05/31 00:03:18;;;;;;;4.25;4.15;;;;;;;;;;5151295;23;20023;-55
2023/05/31 00:05:38;;;;;;;4.50;4.22;;;;;;;;;;5151319;23;20077;-55
2023/05/31 00:07:58;;;;;;;4.13;3.97;;;;;;;;;;5151338;23;20329;-55
2023/05/31 00:10:19;;;;;;;3.65;3.55;;;;;;;;;;5151227;23;20070;-55
2023/05/31 00:12:39;;;;;;;4.57;4.47;;;;;;;;;;5151166;23;20054;-55
2023/05/31 00:14:59;;;;;;;3.85;3.75;;;;;;;;;;5151246;23;20027;-55
2023/05/31 00:17:21;;;;;;;4.55;4.30;;;;;;;;;;5151145;23;20079;-55
2023/05/31 00:19:44;;;;;;;4.05;3.88;;;;;;;;;;5159553;23;20051;-55
2023/05/31 00:22:05;;;;;;;4.82;4.72;;;;;;;;;;5151357;23;20062;-55
2023/05/31 00:24:25;;;;;;;4.97;4.82;;;;;;;;;;5151306;23;20023;-55
2023/05/31 00:26:45;;;;;;;4.22;4.13;;;;;;;;;;5151251;23;20026;-55
2023/05/31 00:29:06;;;;;;;4.80;4.60;;;;;;;;;;5151264;23;20023;-55
2023/05/31 00:31:26;;;;;;;3.90;3.80;;;;;;;;;;5151168;23;20212;-55
2023/05/31 00:33:47;;;;;;;4.65;4.55;;;;;;;;;;5151176;23;20039;-55
2023/05/31 00:36:07;;;;;;;3.97;3.88;;;;;;;;;;5151126;23;20055;-55
2023/05/31 00:38:27;;;;;;;4.53;4.32;;;;;;;;;;5151291;23;20030;-55
2023/05/31 00:40:47;;;;;;;3.83;3.60;;;;;;;;;;5151107;23;20063;-55
2023/05/31 00:43:07;;;;;;;4.72;4.63;;;;;;;;;;5151131;23;20058;-55
2023/05/31 00:45:32;;;;;;;3.47;3.33;;;;;;;;;;5151216;23;20115;-55
2023/05/31 00:47:52;;;;;;;5.28;5.03;;;;;;;;;;5151123;23;20322;-55
2023/05/31 00:50:12;;;;;;;4.35;4.25;;;;;;;;;;5151066;23;20020;-55
2023/05/31 00:52:33;;;;;;;4.57;4.38;;;;;;;;;;5151143;23;20343;-55
2023/05/31 00:54:53;;;;;;;3.92;3.72;;;;;;;;;;5151128;23;20259;-55
2023/05/31 00:57:13;;;;;;;3.90;3.80;;;;;;;;;;5151098;23;20027;-55
2023/05/31 00:59:33;;;;;;;3.95;3.85;;;;;;;;;;5151221;23;20039;-55
2023/05/31 01:01:55;;;;;;;4.25;4.10;;;;;;;;;;5151390;23;20027;-55
2023/05/31 01:04:16;;;;;;;3.53;3.42;;;;;;;;;;5165765;22;20386;-83
2023/05/31 01:06:39;;;;;;;;;;;;;;;;;;5174993;23;20027;-83
2023/05/31 01:09:01;;;;;;;4.15;4.05;;;;;;;;;;5152919;23;19918;-83
2023/05/31 01:11:45;;;;;;;4.35;4.25;;;;;;;;;;5175593;23;20082;-83
2023/05/31 01:14:25;;;;;;;4.50;4.30;;;;;;;;;;5152991;23;20028;-83
2023/05/31 01:16:53;;;;;;;5.15;5.05;;;;;;;;;;5153030;23;20027;-84
2023/05/31 01:19:18;;;;;;;4.00;3.83;;;;;;;;;;5175471;23;20388;-83
2023/05/31 01:21:52;;;;;;;4.25;4.07;;;;;;;;;;5175533;23;20034;-83
2023/05/31 01:24:15;;;;;;;4.60;4.28;;;;;;;;;;5175447;23;20030;-83
2023/05/31 01:26:43;;;;;;;4.68;4.57;;;;;;;;;;5175549;23;20027;-83
2023/05/31 01:29:05;;;;;;;4.63;4.53;;;;;;;;;;5175316;23;20338;-83
2023/05/31 01:31:27;;;;;;;3.83;3.72;;;;;;;;;;5152945;23;20066;-84
2023/05/31 01:33:49;;;;;;;4.80;4.65;;;;;;;;;;5175440;23;20023;-83
2023/05/31 01:36:10;;;;;;;4.32;4.22;;;;;;;;;;5175392;23;20027;-83
2023/05/31 01:38:30;;;;;;;5.28;5.05;;;;;;;;;;5152814;23;20023;-83
2023/05/31 01:40:50;;;;;;;5.25;4.97;;;;;;;;;;5172636;22;20461;-83
2023/05/31 01:43:11;;;;;;;3.50;3.35;;;;;;;;;;5200900;22;20038;-84
2023/05/31 01:45:32;;;;;;;4.57;4.47;;;;;;;;;;5177931;22;20066;-83
2023/05/31 01:47:55;;;;;;;4.80;4.47;;;;;;;;;;5200783;22;20038;-83
2023/05/31 01:50:15;;;;;;;3.88;3.65;;;;;;;;;;5186396;22;20369;-83
2023/05/31 01:52:37;;;;;;;3.92;3.72;;;;;;;;;;5200778;22;20030;-83
2023/05/31 01:54:57;;;;;;;4.10;4.00;;;;;;;;;;5200669;22;20070;-83
2023/05/31 01:57:18;;;;;;;4.80;4.50;;;;;;;;;;5209189;22;20118;-83
2023/05/31 01:59:38;;;;;;;4.85;4.35;;;;;;;;;;5177928;22;20039;-83
2023/05/31 02:01:59;;;;;;;4.25;4.05;;;;;;;;;;5200625;22;20115;-83
2023/05/31 02:04:19;;;;;;;5.25;5.05;;;;;;;;;;5177985;22;20023;-83
2023/05/31 02:06:40;;;;;;;4.82;4.63;;;;;;;;;;5200684;22;20053;-83
2023/05/31 02:09:00;;;;;;;4.90;4.80;;;;;;;;;;5177748;22;20075;-83
2023/05/31 02:11:20;;;;;;;4.60;4.50;;;;;;;;;;5200612;22;20029;-83
2023/05/31 02:13:40;;;;;;;5.00;4.70;;;;;;;;;;5209202;22;20033;-83
2023/05/31 02:16:00;;;;;;;5.65;5.55;;;;;;;;;;5177314;22;20062;-83
2023/05/31 02:18:21;;;;;;;5.32;4.82;;;;;;;;;;5177828;22;20070;-83
2023/05/31 02:20:42;;;;;;;4.47;4.38;;;;;;;;;;5178019;22;20243;-83
2023/05/31 02:23:02;;;;;;;4.35;4.15;;;;;;;;;;5200530;22;20507;-83
2023/05/31 02:25:22;;;;;;;4.50;4.40;;;;;;;;;;5200582;22;20218;-83
2023/05/31 02:27:43;;;;;;;4.82;4.72;;;;;;;;;;5177819;22;20075;-83
2023/05/31 02:30:07;;;;;;;5.07;4.88;;;;;;;;;;5200181;22;20035;-83
2023/05/31 02:32:27;;;;;;;5.03;4.93;;;;;;;;;;5185752;22;20039;-83
2023/05/31 02:34:47;;;;;;;4.80;4.70;;;;;;;;;;5200256;22;20077;-83
2023/05/31 02:37:08;;;;;;;3.92;3.83;;;;;;;;;;5200187;22;20031;-83
2023/05/31 02:39:29;;;;;;;4.30;4.20;;;;;;;;;;5199996;22;20058;-83
2023/05/31 02:41:49;;;;;;;4.75;4.65;;;;;;;;;;5177509;22;20027;-83
2023/05/31 02:44:09;;;;;;;5.38;5.07;;;;;;;;;;5200423;22;20094;-83
2023/05/31 02:46:30;;;;;;;4.50;4.40;;;;;;;;;;5200255;22;20057;-83
2023/05/31 02:48:50;;;;;;;5.28;4.95;;;;;;;;;;5177475;22;20338;-83
2023/05/31 02:51:11;;;;;;;4.85;4.75;;;;;;;;;;5200894;22;20055;-83
2023/05/31 02:53:31;;;;;;;6.00;5.78;;;;;;;;;;5178308;22;20330;-83
2023/05/31 02:55:52;;;;;;;4.15;4.05;;;;;;;;;;5178092;22;20375;-83
2023/05/31 02:58:14;;;;;;;5.03;4.63;;;;;;;;;;5178311;22;20119;-83
2023/05/31 03:00:34;;;;;;;4.03;3.78;;;;;;;;;;5200764;22;20022;-83
2023/05/31 03:02:54;;;;;;;3.85;3.75;;;;;;;;;;5209207;22;20086;-83
2023/05/31 03:05:15;;;;;;;4.75;4.65;;;;;;;;;;5200808;22;20023;-83
2023/05/31 03:07:36;;;;;;;4.78;4.57;;;;;;;;;;5178254;22;20133;-83
2023/05/31 03:09:56;;;;;;;5.18;5.07;;;;;;;;;;5200590;22;20065;-83
2023/05/31 03:12:17;;;;;;;5.60;5.38;;;;;;;;;;5178134;22;20035;-83
2023/05/31 03:14:37;;;;;;;4.68;4.57;;;;;;;;;;5178191;22;20124;-83
2023/05/31 03:16:58;;;;;;;4.97;4.78;;;;;;;;;;5209181;22;20087;-83
2023/05/31 03:19:19;;;;;;;4.20;4.10;;;;;;;;;;5200632;22;20022;-83
2023/05/31 03:21:39;;;;;;;4.15;4.05;;;;;;;;;;5177981;22;20027;-83
2023/05/31 03:24:00;;;;;;;4.75;4.65;;;;;;;;;;5186441;22;20023;-83
2023/05/31 03:26:20;;;;;;;6.05;4.97;;;;;;;;;;5177749;22;20337;-83
2023/05/31 03:28:41;;;;;;;4.45;4.35;;;;;;;;;;5179199;22;20023;-83
2023/05/31 03:31:01;;;;;;;5.00;4.82;;;;;;;;;;5201773;22;20376;-82
2023/05/31 03:33:22;;;;;;;5.47;5.35;;;;;;;;;;5201644;22;20364;-83
2023/05/31 03:35:43;;;;;;;4.57;4.47;;;;;;;;;;5179113;22;20242;-83
2023/05/31 03:38:03;;;;;;;5.22;4.90;;;;;;;;;;5210435;22;20055;-83
2023/05/31 03:40:24;;;;;;;4.53;4.43;;;;;;;;;;5178877;22;20076;-82
2023/05/31 03:42:45;;;;;;;4.85;4.70;;;;;;;;;;5179049;22;20066;-83
2023/05/31 03:45:05;;;;;;;4.72;4.45;;;;;;;;;;5187614;22;20023;-83
2023/05/31 03:47:26;;;;;;;4.38;4.18;;;;;;;;;;5179002;22;20095;-83
2023/05/31 03:49:47;;;;;;;5.07;4.78;;;;;;;;;;5178964;22;20023;-82
2023/05/31 03:52:08;;;;;;;5.35;5.15;;;;;;;;;;5201853;22;20026;-83
2023/05/31 03:54:30;;;;;;;5.93;5.72;;;;;;;;;;5179131;22;20024;-83
2023/05/31 03:56:50;;;;;;;5.15;5.05;;;;;;;;;;5210095;22;20061;-83
2023/05/31 03:59:10;;;;;;;5.82;5.63;;;;;;;;;;5187474;22;20050;-83
2023/05/31 04:01:32;;;;;;;5.68;5.57;;;;;;;;;;5201797;22;20312;-83
2023/05/31 04:03:52;;;;;;;4.90;4.80;;;;;;;;;;5201675;22;20337;-83
2023/05/31 04:06:13;;;;;;;6.15;5.97;;;;;;;;;;5201673;22;20288;-83
2023/05/31 04:08:34;;;;;;;5.32;5.03;;;;;;;;;;5179031;22;20031;-83
2023/05/31 04:10:55;;;;;;;5.93;5.72;;;;;;;;;;5201555;22;20248;-83
2023/05/31 04:13:15;;;;;;;5.63;5.53;;;;;;;;;;5178897;22;20047;-83
2023/05/31 04:15:35;;;;;;;4.65;4.45;;;;;;;;;;5178978;22;20389;-82
2023/05/31 04:17:55;;;;;;;5.90;5.43;;;;;;;;;;5201586;22;20469;-83
2023/05/31 04:20:16;;;;;;;5.05;4.82;;;;;;;;;;5178855;22;20023;-83
2023/05/31 04:22:37;;;;;;;5.80;5.53;;;;;;;;;;5201667;22;20026;-83
2023/05/31 04:24:57;;;;;;;5.82;5.72;;;;;;;;;;5201566;22;20046;-83
2023/05/31 04:27:18;;;;;;;6.13;5.85;;;;;;;;;;5201476;22;20026;-82
2023/05/31 04:29:39;;;;;;;5.05;4.85;;;;;;;;;;5210502;22;20065;-84
2023/05/31 04:32:00;;;;;;;5.38;5.22;;;;;;;;;;5201631;22;20057;-85
2023/05/31 04:34:20;;;;;;;5.70;5.53;;;;;;;;;;5178676;22;20074;-85
2023/05/31 04:36:40;;;;;;;5.68;5.40;;;;;;;;;;5210167;22;20026;-85
2023/05/31 04:39:01;;;;;;;5.55;5.38;;;;;;;;;;5178611;22;20027;-85
2023/05/31 04:41:24;;;;;;;5.13;5.03;;;;;;;;;;5209977;22;20075;-85
2023/05/31 04:43:45;;;;;;;4.53;4.22;;;;;;;;;;5178929;22;20027;-85
2023/05/31 04:46:09;;;;;;;5.05;4.78;;;;;;;;;;5201657;22;20215;-85
2023/05/31 04:48:30;;;;;;;8.05;5.55;;;;;;;;;;5201510;22;20053;-85
2023/05/31 04:50:51;;;;;;;5.38;5.18;;;;;;;;;;5178732;22;20394;-85
2023/05/31 04:53:11;;;;;;;4.68;4.57;;;;;;;;;;5178922;22;20038;-85
2023/05/31 04:55:31;;;;;;;5.00;4.90;;;;;;;;;;5178843;22;20217;-85
2023/05/31 04:57:52;;;;;;;6.18;5.70;;;;;;;;;;5178377;22;20027;-85
2023/05/31 05:00:15;;;;;;;5.55;5.35;;;;;;;;;;5178644;22;20026;-85
2023/05/31 05:02:36;;;;;;;5.40;5.00;;;;;;;;;;5201341;22;20109;-85
2023/05/31 05:04:56;;;;;;;4.80;4.47;;;;;;;;;;5201126;22;20026;-85
2023/05/31 05:07:17;;;;;;;5.97;5.72;;;;;;;;;;5178608;22;20039;-85
2023/05/31 05:09:38;;;;;;;5.72;5.63;;;;;;;;;;5178697;22;20035;-85
2023/05/31 05:11:58;;;;;;;5.28;5.10;;;;;;;;;;5201429;22;20057;-87
2023/05/31 05:14:20;;;;;;;5.78;5.50;;;;;;;;;;5201283;22;20033;-89
2023/05/31 05:16:40;;;;;;;6.32;5.82;;;;;;;;;;5187311;22;20142;-89
2023/05/31 05:19:01;;;;;;;5.57;5.25;;;;;;;;;;5201548;22;20022;-89
2023/05/31 05:21:21;;;;;;;5.82;5.72;;;;;;;;;;5178791;22;20341;-91
2023/05/31 05:23:42;;;;;;;4.95;4.75;;;;;;;;;;5178828;22;20067;-90
2023/05/31 05:26:03;;;;;;;5.38;4.90;;;;;;;;;;5210030;22;20041;-90
2023/05/31 05:28:24;;;;;;;4.57;4.47;;;;;;;;;;5178537;22;20038;-90
2023/05/31 05:30:44;;;;;;;4.32;4.22;;;;;;;;;;5178797;22;20046;-90
2023/05/31 05:33:05;;;;;;;5.45;5.07;;;;;;;;;;5179033;22;20330;-91
2023/05/31 05:35:26;;;;;;;6.20;5.65;;;;;;;;;;5209843;22;20026;-91
2023/05/31 05:37:46;;;;;;;5.13;4.85;;;;;;;;;;5187083;22;20046;-89
2023/05/31 05:40:07;;;;;;;5.93;4.70;;;;;;;;;;5209878;22;20023;-90
2023/05/31 05:42:28;;;;;;;4.82;4.63;;;;;;;;;;5178512;22;20046;-90
2023/05/31 05:44:48;;;;;;;5.00;4.90;;;;;;;;;;5201201;22;20022;-90
2023/05/31 05:47:09;;;;;;;4.10;4.00;;;;;;;;;;5201565;22;20058;-90
2023/05/31 05:49:29;;;;;;;4.75;4.65;;;;;;;;;;5186513;22;20206;-90
2023/05/31 05:51:50;;;;;;;4.90;4.80;;;;;;;;;;5178474;22;20022;-90
2023/05/31 05:54:10;;;;;;;4.65;4.55;;;;;;;;;;5187219;22;20027;-91
2023/05/31 05:56:31;;;;;;;4.55;4.40;;;;;;;;;;5187131;22;20078;-91
2023/05/31 05:58:51;;;;;;;5.40;5.20;;;;;;;;;;5186837;22;20074;-91
2023/05/31 06:01:12;;;;;;;5.05;4.75;;;;;;;;;;5186908;22;20219;-90
2023/05/31 06:03:34;;;;;;;3.70;3.60;;;;;;;;;;5178390;22;20027;-91
2023/05/31 06:05:54;;;;;;;4.35;4.25;;;;;;;;;;5178347;22;20022;-90
2023/05/31 06:08:14;;;;;;;5.28;4.97;;;;;;;;;;5178245;22;20051;-91
2023/05/31 06:10:35;;;;;;;4.18;4.07;;;;;;;;;;5178548;22;20091;-91
2023/05/31 06:12:55;;;;;;;4.78;4.53;;;;;;;;;;5201090;22;20023;-90
2023/05/31 06:15:16;;;;;;;4.63;4.53;;;;;;;;;;5186923;22;20380;-90
2023/05/31 06:17:37;;;;;;;5.40;4.18;;;;;;;;;;5178732;22;20242;-91
2023/05/31 06:19:58;;;;;;;6.50;4.35;;;;;;;;;;5178364;22;20031;-91
2023/05/31 06:22:18;;;;;;;4.00;3.83;;;;;;;;;;5186708;22;20043;-90
2023/05/31 06:24:38;;;;;;;5.32;5.13;;;;;;;;;;5178479;22;20031;-90
2023/05/31 06:26:59;;;;;;;5.13;4.82;;;;;;;;;;5186994;22;20071;-91
2023/05/31 06:29:19;;;;;;;4.25;4.05;;;;;;;;;;5209454;22;20023;-91
2023/05/31 06:31:39;;;;;;;4.95;4.72;;;;;;;;;;5201124;22;20027;-90
2023/05/31 06:34:00;;;;;;;3.80;3.70;;;;;;;;;;5178557;22;20050;-90
2023/05/31 06:36:20;;;;;;;3.97;3.85;;;;;;;;;;5186688;22;20035;-91
2023/05/31 06:38:40;;;;;;;4.53;4.22;;;;;;;;;;5186742;22;20039;-92
2023/05/31 06:41:01;;;;;;;4.90;4.70;;;;;;;;;;5186919;22;20214;-91
2023/05/31 06:43:21;;;;;;;3.97;3.88;;;;;;;;;;5200978;22;20038;-92
2023/05/31 06:45:42;;;;;;;4.40;4.30;;;;;;;;;;5178307;22;20215;-91
2023/05/31 06:48:03;;;;;;;5.13;4.93;;;;;;;;;;5209524;22;20038;-91
2023/05/31 06:50:24;;;;;;;3.90;3.80;;;;;;;;;;5178507;22;20027;-92
2023/05/31 06:52:44;;;;;;;4.50;4.40;;;;;;;;;;5178208;22;20042;-91
2023/05/31 06:55:04;;;;;;;5.30;5.20;;;;;;;;;;5186751;22;20022;-91
2023/05/31 06:57:25;;;;;;;4.20;4.10;;;;;;;;;;5178241;22;20377;-92
2023/05/31 06:59:45;;;;;;;3.90;3.80;;;;;;;;;;5186548;22;20023;-91
2023/05/31 07:02:06;;;;;;;3.95;3.65;;;;;;;;;;5187629;22;20027;-91
2023/05/31 07:04:27;;;;;;;4.80;4.60;;;;;;;;;;5187969;22;20038;-92
2023/05/31 07:06:48;;;;;;;4.28;4.18;;;;;;;;;;5187603;22;20099;-91
2023/05/31 07:09:09;;;;;;;4.40;4.20;;;;;;;;;;5201896;22;20080;-91
2023/05/31 07:11:30;;;;;;;3.60;3.40;;;;;;;;;;5201953;22;20249;-92
2023/05/31 07:13:50;;;;;;;4.32;4.03;;;;;;;;;;5187649;22;20054;-91
2023/05/31 07:16:10;;;;;;;4.22;3.92;;;;;;;;;;5187619;22;20077;-91
2023/05/31 07:18:31;;;;;;;3.60;3.50;;;;;;;;;;5187899;22;20023;-91
2023/05/31 07:20:56;;;;;;;3.83;3.72;;;;;;;;;;5187646;22;20023;-91
2023/05/31 07:23:16;;;;;;;4.18;3.40;;;;;;;;;;5179062;22;20083;-91
2023/05/31 07:25:37;;;;;;;4.40;4.15;;;;;;;;;;5187767;22;20087;-92
2023/05/31 07:27:57;;;;;;;3.30;3.20;;;;;;;;;;5202056;22;20027;-91
2023/05/31 07:30:17;;;;;;;3.10;3.00;;;;;;;;;;5187466;22;20043;-91
2023/05/31 07:32:38;;;;;;;5.28;2.55;;;;;;;;;;5187653;22;20027;-90
2023/05/31 07:34:59;;;;;;;2.22;2.13;;;;;;;;;;5187693;22;20401;-91
2023/05/31 07:37:25;;;;;;;3.50;1.92;;;;;;;;;;5188792;22;20065;-90
2023/05/31 07:39:46;;;;;;;1.20;1.20;;;;;;;;;;5187558;22;20023;-90
2023/05/31 07:42:06;;;;;;;1.20;1.20;;;;;;;;;;5187608;22;20023;-92
2023/05/31 07:44:27;;;;;;;1.10;1.10;;;;;;;;;;5179146;22;20117;-91
2023/05/31 07:46:48;;;;;;;1.10;1.10;;;;;;;;;;5187492;22;20058;-91
2023/05/31 07:49:08;;;;;;;1.73;1.63;;;;;;;;;;5179030;22;20068;-92
2023/05/31 07:51:29;;;;;;;1.00;1.00;;;;;;;;;;5179274;22;20049;-91
2023/05/31 07:53:50;;;;;;;1.00;1.00;;;;;;;;;;5187322;22;20114;-92
2023/05/31 07:56:10;;;;;;;1.10;1.10;;;;;;;;;;5201600;22;20022;-91
2023/05/31 07:58:30;;;;;;;1.00;1.00;;;;;;;;;;5210304;22;20383;-91
2023/05/31 08:00:52;;;;;;;1.00;1.00;;;;;;;;;;5210265;22;20050;-91
2023/05/31 08:03:13;;;;;;;1.10;1.10;;;;;;;;;;5187559;22;20115;-92
2023/05/31 08:05:34;;;;;;;1.10;1.10;;;;;;;;;;5187667;22;20027;-91
2023/05/31 08:07:55;;;;;;;1.00;1.00;;;;;;;;;;5179262;22;20023;-92
2023/05/31 08:10:16;;;;;;;1.00;1.00;;;;;;;;;;5178935;22;20027;-91
2023/05/31 08:12:36;;;;;;;1.17;1.10;;;;;;;;;;5187217;22;20070;-91
2023/05/31 08:14:57;;;;;;;1.10;1.10;;;;;;;;;;5201710;22;20027;-90
2023/05/31 08:17:17;;;;;;;1.05;1.05;;;;;;;;;;5201616;22;20023;-91
2023/05/31 08:19:38;;;;;;;1.00;1.00;;;;;;;;;;5179016;22;20055;-90
2023/05/31 08:21:58;;;;;;;1.00;1.00;;;;;;;;;;5187543;22;20043;-90
2023/05/31 08:24:18;;;;;;;1.10;1.10;;;;;;;;;;5187282;22;20031;-91
2023/05/31 08:26:40;;;;;;;1.00;1.00;;;;;;;;;;5187488;22;20099;-91
2023/05/31 08:29:01;;;;;;;1.15;1.15;;;;;;;;;;5187776;22;20418;-92
2023/05/31 08:31:23;;;;;;;1.20;1.20;;;;;;;;;;5187686;22;20069;-91
2023/05/31 08:33:56;;;;;;;1.17;1.17;;;;;;;;;;5187576;22;20027;-92
2023/05/31 08:36:17;;;;;;;1.00;1.00;;;;;;;;;;5179160;22;20042;-91
2023/05/31 08:38:37;;;;;;;1.00;1.00;;;;;;;;;;5210344;22;20041;-91
2023/05/31 08:40:59;;;;;;;1.10;1.10;;;;;;;;;;5187367;22;20437;-92
2023/05/31 08:43:22;;;;;;;1.10;1.10;;;;;;;;;;5201760;22;20034;-92
2023/05/31 08:45:42;;;;;;;1.58;1.25;;;;;;;;;;5187709;22;20023;-93
2023/05/31 08:48:10;;;;;;;1.00;1.00;;;;;;;;;;5201801;22;20026;-92
2023/05/31 08:50:31;;;;;;;1.00;1.00;;;;;;;;;;5209991;22;20023;-91
2023/05/31 08:52:52;;;;;;;1.05;1.05;;;;;;;;;;5178791;22;20023;-91
2023/05/31 08:55:13;;;;;;;1.20;1.20;;;;;;;;;;5179001;22;20027;-91
2023/05/31 08:57:35;;;;;;;1.10;1.10;;;;;;;;;;5187542;22;20058;-91
2023/05/31 08:59:56;;;;;;;1.60;1.55;;;;;;;;;;5187400;22;20030;-91
2023/05/31 09:02:16;;;;;;;1.20;1.20;;;;;;;;;;5201647;22;20324;-91
2023/05/31 09:04:38;;;;;;;1.80;1.70;;;;;;;;;;5178840;22;20075;-92
2023/05/31 09:07:01;;;;;;;1.85;1.75;;;;;;;;;;5187347;22;20401;-92
2023/05/31 09:09:21;;;;;;;;;;;;;;;;;;5179441;22;20027;-91
2023/05/31 09:11:42;;;;;;;1.60;1.60;;;;;;;;;;5179021;22;19918;-91
2023/05/31 09:14:02;;;;;;;2.35;2.25;;;;;;;;;;5178811;22;20058;-91
2023/05/31 09:16:26;;;;;;;1.95;1.85;;;;;;;;;;5187235;22;20106;-92
2023/05/31 09:18:47;;;;;;;1.50;1.48;;;;;;;;;;5179010;22;20051;-90
2023/05/31 09:21:14;;;;;;;1.65;1.65;;;;;;;;;;5187928;22;20022;-92
2023/05/31 09:23:35;;;;;;;1.90;1.80;;;;;;;;;;5187384;22;20034;-92
2023/05/31 09:25:55;;;;;;;1.90;1.90;;;;;;;;;;5179051;22;20112;-92
2023/05/31 09:28:18;;;;;;;2.70;1.55;;;;;;;;;;5179010;22;20027;-91
2023/05/31 09:30:38;;;;;;;1.52;1.52;;;;;;;;;;5178843;22;20027;-92
2023/05/31 09:33:00;;;;;;;1.90;1.80;;;;;;;;;;5178818;22;20022;-91
2023/05/31 09:35:24;;;;;;;3.70;1.60;;;;;;;;;;5178863;22;20035;-92
2023/05/31 09:37:46;;;;;;;1.33;1.33;;;;;;;;;;5178834;22;20024;-92
2023/05/31 09:40:07;;;;;;;1.90;1.90;;;;;;;;;;5187169;22;20055;-92
2023/05/31 09:42:29;;;;;;;1.90;1.77;;;;;;;;;;5187505;22;20050;-92
2023/05/31 09:44:49;;;;;;;2.00;1.90;;;;;;;;;;5179077;22;20072;-92
2023/05/31 09:47:10;;;;;;;1.70;1.60;;;;;;;;;;5187197;22;20027;-92
2023/05/31 09:49:30;;;;;;;1.88;1.80;;;;;;;;;;5209860;22;20026;-92
2023/05/31 09:51:52;;;;;;;1.73;1.63;;;;;;;;;;5210016;22;20033;-92
2023/05/31 09:54:16;;;;;;;1.73;1.20;;;;;;;;;;5178756;22;20066;-92
2023/05/31 09:56:38;;;;;;;2.25;1.70;;;;;;;;;;5201542;22;20050;-92
2023/05/31 09:58:58;;;;;;;1.80;1.70;;;;;;;;;;5187282;22;20058;-92
2023/05/31 10:01:21;;;;;;;1.50;1.50;;;;;;;;;;5210149;22;20207;-89
2023/05/31 10:03:52;;;;;;;;;;;;;;;;;;5189644;22;20089;-88
2023/05/31 10:06:13;;;;;;;3.50;2.03;;;;;;;;;;5178467;22;19957;-88
2023/05/31 10:08:37;;;;;;;1.65;1.55;;;;;;;;;;5178947;22;20026;-88
2023/05/31 10:11:01;;;;;;;1.85;1.75;;;;;;;;;;5178551;22;20027;-88
2023/05/31 10:13:24;;;;;;;1.80;1.20;;;;;;;;;;5187009;22;20058;-88
2023/05/31 10:15:49;;;;;;;2.00;1.90;;;;;;;;;;5178501;22;20027;-88
2023/05/31 10:18:09;;;;;;;3.35;1.75;;;;;;;;;;5178390;22;20046;-88
2023/05/31 10:20:33;;;;;;;1.52;1.42;;;;;;;;;;5186892;22;20226;-89
2023/05/31 10:22:55;;;;;;;1.98;1.30;;;;;;;;;;5201025;22;20053;-89
2023/05/31 10:25:22;;;;;;;1.20;1.20;;;;;;;;;;5178452;22;20053;-88
2023/05/31 10:27:45;;;;;;;3.05;1.42;;;;;;;;;;5186808;22;20273;-89
2023/05/31 10:30:05;;;;;;;1.92;1.83;;;;;;;;;;5186721;22;20023;-89
2023/05/31 10:32:27;;;;;;;1.60;1.50;;;;;;;;;;5186869;22;20215;-88
2023/05/31 10:34:47;;;;;;;1.50;1.40;;;;;;;;;;5186883;22;20023;-88
2023/05/31 10:37:09;;;;;;;1.38;1.27;;;;;;;;;;5209225;22;20026;-89
2023/05/31 10:39:35;;;;;;;1.90;1.80;;;;;;;;;;5200845;22;20473;-89
2023/05/31 10:42:01;;;;;;;2.45;1.77;;;;;;;;;;5186790;22;20082;-88
2023/05/31 10:44:28;;;;;;;1.60;1.50;;;;;;;;;;5186703;22;20026;-89
2023/05/31 10:46:50;;;;;;;1.48;1.23;;;;;;;;;;5178255;22;20361;-89
2023/05/31 10:49:14;;;;;;;1.90;1.48;;;;;;;;;;5200807;22;20218;-88
2023/05/31 10:51:39;;;;;;;1.95;1.35;;;;;;;;;;5209486;22;20051;-89
2023/05/31 10:53:59;;;;;;;2.65;1.75;;;;;;;;;;5186722;22;20321;-89
2023/05/31 10:56:22;;;;;;;1.70;1.67;;;;;;;;;;5200892;22;20069;-88
2023/05/31 10:58:43;;;;;;;2.10;1.95;;;;;;;;;;5186495;22;20039;-88
2023/05/31 11:01:08;;;;;;;1.88;1.30;;;;;;;;;;5186616;22;20214;-88
2023/05/31 11:03:31;;;;;;;1.67;1.30;;;;;;;;;;5186742;22;20031;-89
2023/05/31 11:05:54;;;;;;;1.77;1.38;;;;;;;;;;5178082;22;20023;-89
2023/05/31 11:08:15;;;;;;;1.40;1.30;;;;;;;;;;5209187;22;20068;-88
2023/05/31 11:10:36;;;;;;;1.63;1.52;;;;;;;;;;5209078;22;20065;-88
2023/05/31 11:12:57;;;;;;;1.70;1.60;;;;;;;;;;5186183;22;20326;-88
2023/05/31 11:15:17;;;;;;;1.85;1.75;;;;;;;;;;5177698;22;20054;-88
2023/05/31 11:17:51;;;;;;;1.40;1.40;;;;;;;;;;5177829;22;20109;-88
2023/05/31 11:20:16;;;;;;;1.65;1.55;;;;;;;;;;5186566;22;20023;-87
2023/05/31 11:22:37;;;;;;;2.45;1.60;;;;;;;;;;5186303;22;20023;-88
2023/05/31 11:24:58;;;;;;;1.55;1.55;;;;;;;;;;5186255;22;20023;-87
2023/05/31 11:27:22;;;;;;;1.35;1.35;;;;;;;;;;5186434;22;20027;-88
2023/05/31 11:29:48;;;;;;;1.95;1.58;;;;;;;;;;5177770;22;20080;-88
2023/05/31 11:32:09;;;;;;;1.70;1.60;;;;;;;;;;5186182;22;20024;-88
2023/05/31 11:34:31;;;;;;;1.33;1.30;;;;;;;;;;5177980;22;20051;-88
2023/05/31 11:36:51;;;;;;;1.70;1.63;;;;;;;;;;5186391;22;20052;-88
2023/05/31 11:39:12;;;;;;;3.47;1.60;;;;;;;;;;5208992;22;20288;-88
2023/05/31 11:41:33;;;;;;;1.63;1.52;;;;;;;;;;5177872;22;20043;-82
2023/05/31 11:43:54;;;;;;;1.10;1.10;;;;;;;;;;5177914;22;20054;-81
2023/05/31 11:46:15;;;;;;;1.50;1.40;;;;;;;;;;5200374;22;20042;-81
2023/05/31 11:48:38;;;;;;;2.85;1.50;;;;;;;;;;5200979;22;20279;-81
2023/05/31 11:50:58;;;;;;;1.55;1.38;;;;;;;;;;5201704;22;20029;-81
2023/05/31 11:53:19;;;;;;;1.80;1.70;;;;;;;;;;5201777;22;20022;-81
2023/05/31 11:55:41;;;;;;;1.60;1.30;;;;;;;;;;5210082;22;20090;-82
2023/05/31 11:58:02;;;;;;;1.13;1.10;;;;;;;;;;5201788;22;20023;-81
2023/05/31 12:00:22;;;;;;;1.55;1.35;;;;;;;;;;5201760;22;20287;-82
2023/05/31 12:02:44;;;;;;;2.13;1.30;;;;;;;;;;5178958;22;20227;-81
2023/05/31 12:05:04;;;;;;;1.58;1.55;;;;;;;;;;5201600;22;20079;-81
2023/05/31 12:07:25;;;;;;;1.95;1.40;;;;;;;;;;5178973;22;20118;-81
2023/05/31 12:09:45;;;;;;;1.75;1.38;;;;;;;;;;5178755;22;20023;-81
2023/05/31 12:12:05;;;;;;;1.80;1.70;;;;;;;;;;5178725;22;20023;-81
2023/05/31 12:14:26;;;;;;;1.20;1.20;;;;;;;;;;5201714;22;20051;-81
2023/05/31 12:16:49;;;;;;;3.90;1.35;;;;;;;;;;5210134;22;20023;-81
2023/05/31 12:19:12;;;;;;;1.20;1.10;;;;;;;;;;5201465;22;20065;-81
2023/05/31 12:21:32;;;;;;;1.33;1.33;;;;;;;;;;5201588;22;20022;-81
2023/05/31 12:23:57;;;;;;;1.55;1.45;;;;;;;;;;5210223;22;20031;-81
2023/05/31 12:26:18;;;;;;;2.65;1.60;;;;;;;;;;5201522;22;20286;-81
2023/05/31 12:28:38;;;;;;;1.60;1.50;;;;;;;;;;5201427;22;20066;-81
2023/05/31 12:30:58;;;;;;;2.78;1.70;;;;;;;;;;5201633;22;20219;-81
2023/05/31 12:33:20;;;;;;;1.35;1.30;;;;;;;;;;5201480;22;20023;-85
2023/05/31 12:35:41;;;;;;;1.52;1.42;;;;;;;;;;5209884;22;20050;-86
2023/05/31 12:38:01;;;;;;;2.90;2.03;;;;;;;;;;5178890;22;20023;-86
2023/05/31 12:40:22;;;;;;;2.35;1.92;;;;;;;;;;5178805;22;20023;-85
2023/05/31 12:42:44;;;;;;;2.35;2.25;;;;;;;;;;5179017;22;20071;-85
2023/05/31 12:45:05;;;;;;;2.08;2.00;;;;;;;;;;5178825;22;20086;-85
2023/05/31 12:47:26;;;;;;;1.83;1.73;;;;;;;;;;5210142;22;20027;-85
2023/05/31 12:49:47;;;;;;;1.50;1.40;;;;;;;;;;5178860;22;20346;-85
2023/05/31 12:52:08;;;;;;;2.55;2.42;;;;;;;;;;5201488;22;20057;-86
2023/05/31 12:54:30;;;;;;;2.20;1.63;;;;;;;;;;5187264;22;20046;-85
2023/05/31 12:56:51;;;;;;;2.10;1.93;;;;;;;;;;5209706;22;20079;-85
2023/05/31 12:59:11;;;;;;;1.75;1.75;;;;;;;;;;5200848;22;20022;-85
2023/05/31 13:01:32;;;;;;;1.70;1.60;;;;;;;;;;5178717;22;20062;-85
2023/05/31 13:03:52;;;;;;;1.98;1.92;;;;;;;;;;5178593;22;20337;-85
2023/05/31 13:06:13;;;;;;;2.35;2.13;;;;;;;;;;5186852;22;20035;-84
2023/05/31 13:08:33;;;;;;;2.42;2.33;;;;;;;;;;5201465;22;20211;-84
2023/05/31 13:10:53;;;;;;;1.98;1.85;;;;;;;;;;5201491;22;20255;-85
2023/05/31 13:13:15;;;;;;;1.80;1.67;;;;;;;;;;5201171;22;20031;-85
2023/05/31 13:15:35;;;;;;;2.67;1.70;;;;;;;;;;5187129;22;20062;-84
2023/05/31 13:17:55;;;;;;;1.73;1.63;;;;;;;;;;5187158;22;20023;-84
2023/05/31 13:20:15;;;;;;;3.30;2.42;;;;;;;;;;5201294;22;20023;-84
2023/05/31 13:22:36;;;;;;;2.08;1.98;;;;;;;;;;5201140;22;20325;-84
2023/05/31 13:24:56;;;;;;;1.90;1.80;;;;;;;;;;5201457;22;20042;-84
2023/05/31 13:27:17;;;;;;;2.22;2.00;;;;;;;;;;5178525;22;20026;-84
2023/05/31 13:29:38;;;;;;;2.00;1.73;;;;;;;;;;5178564;22;20030;-84
2023/05/31 13:31:58;;;;;;;1.73;1.63;;;;;;;;;;5178741;22;20035;-84
2023/05/31 13:34:20;;;;;;;2.97;1.35;;;;;;;;;;5201467;22;20026;-84
2023/05/31 13:36:40;;;;;;;1.58;1.48;;;;;;;;;;5201189;22;20026;-85
2023/05/31 13:39:01;;;;;;;1.50;1.50;;;;;;;;;;5178570;22;20062;-84
2023/05/31 13:41:21;;;;;;;1.67;1.58;;;;;;;;;;5201403;22;20219;-84
2023/05/31 13:43:42;;;;;;;1.30;1.30;;;;;;;;;;5178473;22;20071;-84
2023/05/31 13:46:02;;;;;;;3.45;1.60;;;;;;;;;;5187110;22;20062;-84
2023/05/31 13:48:22;;;;;;;1.92;1.92;;;;;;;;;;5201405;22;20053;-84
2023/05/31 13:50:42;;;;;;;1.88;1.75;;;;;;;;;;5178404;22;20062;-84
2023/05/31 13:53:03;;;;;;;2.17;2.08;;;;;;;;;;5201125;22;20215;-84
2023/05/31 13:55:23;;;;;;;1.73;1.70;;;;;;;;;;5187121;22;20118;-84
2023/05/31 13:57:43;;;;;;;1.40;1.30;;;;;;;;;;5201156;22;20088;-84
2023/05/31 14:00:04;;;;;;;1.35;1.35;;;;;;;;;;5201043;22;20222;-84
2023/05/31 14:02:25;;;;;;;1.65;1.55;;;;;;;;;;5201310;22;20211;-84
2023/05/31 14:04:45;;;;;;;3.95;1.70;;;;;;;;;;5178593;22;20338;-84
2023/05/31 14:07:05;;;;;;;1.40;1.30;;;;;;;;;;5201092;22;20022;-84